Aviation Digital Data Service (ADDS)

Output produced by METARs form (0339 UTC 17 July 2018)
found at http://aviationweather.gov/adds/metars/
 
KBTR 170253Z 09005KT 10SM FEW045 27/23 A3003 RMK AO2 SLP166 T02670233 51016